sensor_id;sensor_type;location;lat;lon;timestamp;P1;durP1;ratioP1;P2;durP2;ratioP2
4375;SDS011;2202;50.866;12.750;2023-04-03T00:00:04;3.20;;;2.90;;
4375;SDS011;2202;50.866;12.750;2023-04-03T00:02:33;4.83;;;3.07;;
4375;SDS011;2202;50.866;12.750;2023-04-03T00:05:00;3.10;;;2.80;;
4375;SDS011;2202;50.866;12.750;2023-04-03T00:07:27;14.53;;;2.90;;
4375;SDS011;2202;50.866;12.750;2023-04-03T00:09:55;5.63;;;3.00;;
4375;SDS011;2202;50.866;12.750;2023-04-03T00:12:22;2.70;;;2.50;;
4375;SDS011;2202;50.866;12.750;2023-04-03T00:14:48;5.90;;;2.80;;
4375;SDS011;2202;50.866;12.750;2023-04-03T00:17:15;3.03;;;2.47;;
4375;SDS011;2202;50.866;12.750;2023-04-03T00:19:42;3.17;;;2.57;;
4375;SDS011;2202;50.866;12.750;2023-04-03T00:22:09;5.80;;;3.40;;
4375;SDS011;2202;50.866;12.750;2023-04-03T00:24:36;3.60;;;3.20;;
4375;SDS011;2202;50.866;12.750;2023-04-03T00:27:04;3.20;;;2.77;;
4375;SDS011;2202;50.866;12.750;2023-04-03T00:29:31;5.33;;;3.40;;
4375;SDS011;2202;50.866;12.750;2023-04-03T00:31:58;3.80;;;2.60;;
4375;SDS011;2202;50.866;12.750;2023-04-03T00:34:24;12.27;;;3.40;;
4375;SDS011;2202;50.866;12.750;2023-04-03T00:36:51;3.93;;;2.70;;
4375;SDS011;2202;50.866;12.750;2023-04-03T00:39:18;4.37;;;2.97;;
4375;SDS011;2202;50.866;12.750;2023-04-03T00:41:45;3.00;;;2.33;;
4375;SDS011;2202;50.866;12.750;2023-04-03T00:45:19;3.73;;;3.00;;
4375;SDS011;2202;50.866;12.750;2023-04-03T00:47:28;6.83;;;2.73;;
4375;SDS011;2202;50.866;12.750;2023-04-03T00:49:57;5.10;;;3.17;;
4375;SDS011;2202;50.866;12.750;2023-04-03T00:52:25;3.23;;;3.00;;
4375;SDS011;2202;50.866;12.750;2023-04-03T00:54:56;3.10;;;2.73;;
4375;SDS011;2202;50.866;12.750;2023-04-03T00:57:28;3.20;;;2.87;;
4375;SDS011;2202;50.866;12.750;2023-04-03T00:59:59;8.93;;;2.70;;
4375;SDS011;2202;50.866;12.750;2023-04-03T01:02:31;11.10;;;3.53;;
4375;SDS011;2202;50.866;12.750;2023-04-03T01:04:58;6.80;;;3.30;;
4375;SDS011;2202;50.866;12.750;2023-04-03T01:07:30;4.50;;;2.80;;
4375;SDS011;2202;50.866;12.750;2023-04-03T01:09:59;5.20;;;3.77;;
4375;SDS011;2202;50.866;12.750;2023-04-03T01:12:28;7.43;;;3.80;;
4375;SDS011;2202;50.866;12.750;2023-04-03T01:14:59;4.43;;;2.67;;
4375;SDS011;2202;50.866;12.750;2023-04-03T01:17:28;6.20;;;3.10;;
4375;SDS011;2202;50.866;12.750;2023-04-03T01:20:01;3.60;;;2.80;;
4375;SDS011;2202;50.866;12.750;2023-04-03T01:22:45;4.50;;;2.87;;
4375;SDS011;2202;50.866;12.750;2023-04-03T01:25:21;5.57;;;3.40;;
4375;SDS011;2202;50.866;12.750;2023-04-03T01:27:48;3.73;;;2.57;;
4375;SDS011;2202;50.866;12.750;2023-04-03T01:30:17;5.73;;;3.20;;
4375;SDS011;2202;50.866;12.750;2023-04-03T01:32:47;5.80;;;3.33;;
4375;SDS011;2202;50.866;12.750;2023-04-03T01:35:14;4.30;;;2.60;;
4375;SDS011;2202;50.866;12.750;2023-04-03T01:37:41;3.00;;;2.40;;
4375;SDS011;2202;50.866;12.750;2023-04-03T01:40:08;5.00;;;2.97;;
4375;SDS011;2202;50.866;12.750;2023-04-03T01:42:35;6.10;;;3.10;;
4375;SDS011;2202;50.866;12.750;2023-04-03T01:45:02;3.90;;;3.43;;
4375;SDS011;2202;50.866;12.750;2023-04-03T01:47:30;5.90;;;3.10;;
4375;SDS011;2202;50.866;12.750;2023-04-03T01:49:58;4.00;;;2.77;;
4375;SDS011;2202;50.866;12.750;2023-04-03T01:52:25;3.43;;;2.80;;
4375;SDS011;2202;50.866;12.750;2023-04-03T01:54:52;3.37;;;2.80;;
4375;SDS011;2202;50.866;12.750;2023-04-03T01:57:18;6.80;;;2.60;;
4375;SDS011;2202;50.866;12.750;2023-04-03T01:59:45;7.37;;;2.80;;
4375;SDS011;2202;50.866;12.750;2023-04-03T02:02:12;4.17;;;2.67;;
4375;SDS011;2202;50.866;12.750;2023-04-03T02:04:39;3.30;;;2.70;;
4375;SDS011;2202;50.866;12.750;2023-04-03T02:07:08;7.50;;;2.77;;
4375;SDS011;2202;50.866;12.750;2023-04-03T02:09:35;3.37;;;3.07;;
4375;SDS011;2202;50.866;12.750;2023-04-03T02:12:01;4.20;;;3.23;;
4375;SDS011;2202;50.866;12.750;2023-04-03T02:14:29;4.33;;;2.90;;
4375;SDS011;2202;50.866;12.750;2023-04-03T02:16:56;4.93;;;2.93;;
4375;SDS011;2202;50.866;12.750;2023-04-03T02:19:23;4.83;;;2.87;;
4375;SDS011;2202;50.866;12.750;2023-04-03T02:21:50;3.77;;;3.47;;
4375;SDS011;2202;50.866;12.750;2023-04-03T02:24:18;10.27;;;3.63;;
4375;SDS011;2202;50.866;12.750;2023-04-03T02:26:45;3.43;;;3.10;;
4375;SDS011;2202;50.866;12.750;2023-04-03T02:29:12;2.97;;;2.63;;
4375;SDS011;2202;50.866;12.750;2023-04-03T02:31:39;4.83;;;3.10;;
4375;SDS011;2202;50.866;12.750;2023-04-03T02:34:06;10.13;;;3.00;;
4375;SDS011;2202;50.866;12.750;2023-04-03T02:36:33;5.07;;;3.63;;
4375;SDS011;2202;50.866;12.750;2023-04-03T02:39:00;3.60;;;2.20;;
4375;SDS011;2202;50.866;12.750;2023-04-03T02:41:28;4.43;;;3.20;;
4375;SDS011;2202;50.866;12.750;2023-04-03T02:43:59;3.70;;;2.80;;
4375;SDS011;2202;50.866;12.750;2023-04-03T02:46:26;6.43;;;3.03;;
4375;SDS011;2202;50.866;12.750;2023-04-03T02:48:53;4.47;;;2.60;;
4375;SDS011;2202;50.866;12.750;2023-04-03T02:51:20;9.27;;;3.00;;
4375;SDS011;2202;50.866;12.750;2023-04-03T02:53:47;5.90;;;3.80;;
4375;SDS011;2202;50.866;12.750;2023-04-03T02:56:15;3.17;;;2.87;;
4375;SDS011;2202;50.866;12.750;2023-04-03T02:58:43;13.50;;;3.47;;
4375;SDS011;2202;50.866;12.750;2023-04-03T03:01:10;3.70;;;3.23;;
4375;SDS011;2202;50.866;12.750;2023-04-03T03:03:37;3.47;;;3.17;;
4375;SDS011;2202;50.866;12.750;2023-04-03T03:06:06;5.23;;;3.47;;
4375;SDS011;2202;50.866;12.750;2023-04-03T03:08:34;6.33;;;4.10;;
4375;SDS011;2202;50.866;12.750;2023-04-03T03:11:01;7.67;;;3.33;;
4375;SDS011;2202;50.866;12.750;2023-04-03T03:13:28;4.00;;;2.87;;
4375;SDS011;2202;50.866;12.750;2023-04-03T03:15:57;4.00;;;2.73;;
4375;SDS011;2202;50.866;12.750;2023-04-03T03:18:24;9.57;;;3.00;;
4375;SDS011;2202;50.866;12.750;2023-04-03T03:20:51;5.37;;;2.87;;
4375;SDS011;2202;50.866;12.750;2023-04-03T03:23:18;4.60;;;3.57;;
4375;SDS011;2202;50.866;12.750;2023-04-03T03:25:45;9.97;;;3.50;;
4375;SDS011;2202;50.866;12.750;2023-04-03T03:28:12;7.00;;;5.93;;
4375;SDS011;2202;50.866;12.750;2023-04-03T03:30:39;4.73;;;3.73;;
4375;SDS011;2202;50.866;12.750;2023-04-03T03:33:07;7.60;;;3.50;;
4375;SDS011;2202;50.866;12.750;2023-04-03T03:35:34;6.90;;;2.73;;
4375;SDS011;2202;50.866;12.750;2023-04-03T03:38:01;5.30;;;3.83;;
4375;SDS011;2202;50.866;12.750;2023-04-03T03:40:28;9.10;;;3.57;;
4375;SDS011;2202;50.866;12.750;2023-04-03T03:42:55;8.63;;;4.13;;
4375;SDS011;2202;50.866;12.750;2023-04-03T03:45:22;6.97;;;4.47;;
4375;SDS011;2202;50.866;12.750;2023-04-03T03:47:48;4.47;;;3.93;;
4375;SDS011;2202;50.866;12.750;2023-04-03T03:50:17;8.43;;;3.80;;
4375;SDS011;2202;50.866;12.750;2023-04-03T03:52:44;7.90;;;3.70;;
4375;SDS011;2202;50.866;12.750;2023-04-03T03:55:11;7.17;;;3.20;;
4375;SDS011;2202;50.866;12.750;2023-04-03T03:57:38;12.40;;;3.37;;
4375;SDS011;2202;50.866;12.750;2023-04-03T04:00:05;5.53;;;4.00;;
4375;SDS011;2202;50.866;12.750;2023-04-03T04:02:33;6.63;;;3.13;;
4375;SDS011;2202;50.866;12.750;2023-04-03T04:05:00;4.13;;;3.73;;
4375;SDS011;2202;50.866;12.750;2023-04-03T04:07:28;3.80;;;3.20;;
4375;SDS011;2202;50.866;12.750;2023-04-03T04:09:55;6.20;;;4.27;;
4375;SDS011;2202;50.866;12.750;2023-04-03T04:12:22;8.37;;;3.37;;
4375;SDS011;2202;50.866;12.750;2023-04-03T04:14:49;8.93;;;3.70;;
4375;SDS011;2202;50.866;12.750;2023-04-03T04:17:16;6.20;;;3.40;;
4375;SDS011;2202;50.866;12.750;2023-04-03T04:19:43;5.50;;;4.40;;
4375;SDS011;2202;50.866;12.750;2023-04-03T04:22:09;5.17;;;3.30;;
4375;SDS011;2202;50.866;12.750;2023-04-03T04:24:38;5.27;;;2.97;;
4375;SDS011;2202;50.866;12.750;2023-04-03T04:27:05;6.27;;;3.30;;
4375;SDS011;2202;50.866;12.750;2023-04-03T04:29:31;4.90;;;3.77;;
4375;SDS011;2202;50.866;12.750;2023-04-03T04:32:00;5.30;;;3.80;;
4375;SDS011;2202;50.866;12.750;2023-04-03T04:34:27;3.63;;;3.30;;
4375;SDS011;2202;50.866;12.750;2023-04-03T04:36:54;8.13;;;3.53;;
4375;SDS011;2202;50.866;12.750;2023-04-03T04:39:21;7.13;;;3.97;;
4375;SDS011;2202;50.866;12.750;2023-04-03T04:41:49;6.73;;;3.20;;
4375;SDS011;2202;50.866;12.750;2023-04-03T04:44:16;4.93;;;4.50;;
4375;SDS011;2202;50.866;12.750;2023-04-03T04:46:43;8.23;;;4.60;;
4375;SDS011;2202;50.866;12.750;2023-04-03T04:49:10;10.20;;;5.40;;
4375;SDS011;2202;50.866;12.750;2023-04-03T04:51:37;6.30;;;4.07;;
4375;SDS011;2202;50.866;12.750;2023-04-03T04:54:04;6.20;;;3.27;;
4375;SDS011;2202;50.866;12.750;2023-04-03T04:56:31;6.40;;;3.60;;
4375;SDS011;2202;50.866;12.750;2023-04-03T04:58:59;6.03;;;3.93;;
4375;SDS011;2202;50.866;12.750;2023-04-03T05:01:26;4.70;;;4.00;;
4375;SDS011;2202;50.866;12.750;2023-04-03T05:03:53;7.23;;;3.80;;
4375;SDS011;2202;50.866;12.750;2023-04-03T05:06:20;6.20;;;4.93;;
4375;SDS011;2202;50.866;12.750;2023-04-03T05:08:47;5.80;;;3.93;;
4375;SDS011;2202;50.866;12.750;2023-04-03T05:11:14;10.70;;;4.60;;
4375;SDS011;2202;50.866;12.750;2023-04-03T05:13:41;8.47;;;4.53;;
4375;SDS011;2202;50.866;12.750;2023-04-03T05:16:09;8.37;;;4.17;;
4375;SDS011;2202;50.866;12.750;2023-04-03T05:18:36;3.97;;;3.57;;
4375;SDS011;2202;50.866;12.750;2023-04-03T05:21:03;5.40;;;3.43;;
4375;SDS011;2202;50.866;12.750;2023-04-03T05:23:30;4.97;;;3.13;;
4375;SDS011;2202;50.866;12.750;2023-04-03T05:25:57;4.93;;;3.70;;
4375;SDS011;2202;50.866;12.750;2023-04-03T05:28:24;8.80;;;4.00;;
4375;SDS011;2202;50.866;12.750;2023-04-03T05:30:54;7.67;;;3.90;;
4375;SDS011;2202;50.866;12.750;2023-04-03T05:33:23;5.40;;;4.40;;
4375;SDS011;2202;50.866;12.750;2023-04-03T05:35:51;8.33;;;4.07;;
4375;SDS011;2202;50.866;12.750;2023-04-03T05:38:18;8.30;;;4.53;;
4375;SDS011;2202;50.866;12.750;2023-04-03T05:40:45;5.67;;;4.70;;
4375;SDS011;2202;50.866;12.750;2023-04-03T05:43:12;6.00;;;4.10;;
4375;SDS011;2202;50.866;12.750;2023-04-03T05:45:38;5.33;;;4.00;;
4375;SDS011;2202;50.866;12.750;2023-04-03T05:48:05;9.07;;;5.03;;
4375;SDS011;2202;50.866;12.750;2023-04-03T05:50:33;7.60;;;4.40;;
4375;SDS011;2202;50.866;12.750;2023-04-03T05:53:01;7.37;;;3.80;;
4375;SDS011;2202;50.866;12.750;2023-04-03T05:55:29;4.53;;;3.47;;
4375;SDS011;2202;50.866;12.750;2023-04-03T05:57:56;4.77;;;3.40;;
4375;SDS011;2202;50.866;12.750;2023-04-03T06:00:23;6.17;;;3.30;;
4375;SDS011;2202;50.866;12.750;2023-04-03T06:02:50;7.20;;;4.30;;
4375;SDS011;2202;50.866;12.750;2023-04-03T06:05:16;7.43;;;4.23;;
4375;SDS011;2202;50.866;12.750;2023-04-03T06:07:45;3.90;;;3.40;;
4375;SDS011;2202;50.866;12.750;2023-04-03T06:10:14;5.50;;;3.57;;
4375;SDS011;2202;50.866;12.750;2023-04-03T06:12:41;9.83;;;4.93;;
4375;SDS011;2202;50.866;12.750;2023-04-03T06:15:08;7.23;;;4.10;;
4375;SDS011;2202;50.866;12.750;2023-04-03T06:17:36;6.57;;;3.87;;
4375;SDS011;2202;50.866;12.750;2023-04-03T06:20:04;9.87;;;4.67;;
4375;SDS011;2202;50.866;12.750;2023-04-03T06:22:31;9.73;;;4.53;;
4375;SDS011;2202;50.866;12.750;2023-04-03T06:24:59;7.40;;;4.13;;
4375;SDS011;2202;50.866;12.750;2023-04-03T06:27:27;9.77;;;6.47;;
4375;SDS011;2202;50.866;12.750;2023-04-03T06:29:54;9.47;;;5.17;;
4375;SDS011;2202;50.866;12.750;2023-04-03T06:32:21;18.03;;;6.73;;
4375;SDS011;2202;50.866;12.750;2023-04-03T06:34:48;9.97;;;5.47;;
4375;SDS011;2202;50.866;12.750;2023-04-03T06:37:15;6.97;;;4.90;;
4375;SDS011;2202;50.866;12.750;2023-04-03T06:39:44;7.20;;;4.30;;
4375;SDS011;2202;50.866;12.750;2023-04-03T06:42:12;10.10;;;6.50;;
4375;SDS011;2202;50.866;12.750;2023-04-03T06:44:39;17.50;;;12.00;;
4375;SDS011;2202;50.866;12.750;2023-04-03T06:47:06;6.07;;;5.13;;
4375;SDS011;2202;50.866;12.750;2023-04-03T06:49:35;5.73;;;5.00;;
4375;SDS011;2202;50.866;12.750;2023-04-03T06:52:02;9.30;;;4.57;;
4375;SDS011;2202;50.866;12.750;2023-04-03T06:54:30;7.60;;;4.30;;
4375;SDS011;2202;50.866;12.750;2023-04-03T06:56:57;10.23;;;4.83;;
4375;SDS011;2202;50.866;12.750;2023-04-03T06:59:26;7.60;;;5.20;;
4375;SDS011;2202;50.866;12.750;2023-04-03T07:01:52;7.27;;;5.53;;
4375;SDS011;2202;50.866;12.750;2023-04-03T07:04:19;13.50;;;5.43;;
4375;SDS011;2202;50.866;12.750;2023-04-03T07:06:46;9.60;;;5.00;;
4375;SDS011;2202;50.866;12.750;2023-04-03T07:09:14;6.43;;;5.90;;
4375;SDS011;2202;50.866;12.750;2023-04-03T07:11:41;12.00;;;6.03;;
4375;SDS011;2202;50.866;12.750;2023-04-03T07:14:08;7.70;;;5.33;;
4375;SDS011;2202;50.866;12.750;2023-04-03T07:16:36;7.60;;;6.00;;
4375;SDS011;2202;50.866;12.750;2023-04-03T07:19:03;8.10;;;5.70;;
4375;SDS011;2202;50.866;12.750;2023-04-03T07:21:30;10.73;;;6.23;;
4375;SDS011;2202;50.866;12.750;2023-04-03T07:23:56;7.30;;;6.20;;
4375;SDS011;2202;50.866;12.750;2023-04-03T07:26:23;11.33;;;6.67;;
4375;SDS011;2202;50.866;12.750;2023-04-03T07:28:50;8.97;;;6.47;;
4375;SDS011;2202;50.866;12.750;2023-04-03T07:31:17;7.73;;;6.93;;
4375;SDS011;2202;50.866;12.750;2023-04-03T07:33:46;12.20;;;7.70;;
4375;SDS011;2202;50.866;12.750;2023-04-03T07:36:14;9.53;;;7.93;;
4375;SDS011;2202;50.866;12.750;2023-04-03T07:38:43;9.33;;;6.70;;
4375;SDS011;2202;50.866;12.750;2023-04-03T07:41:10;8.93;;;6.37;;
4375;SDS011;2202;50.866;12.750;2023-04-03T07:43:40;8.63;;;6.13;;
4375;SDS011;2202;50.866;12.750;2023-04-03T07:46:07;8.60;;;7.43;;
4375;SDS011;2202;50.866;12.750;2023-04-03T07:48:34;7.80;;;6.80;;
4375;SDS011;2202;50.866;12.750;2023-04-03T07:51:03;11.93;;;6.57;;
4375;SDS011;2202;50.866;12.750;2023-04-03T07:53:30;9.37;;;7.23;;
4375;SDS011;2202;50.866;12.750;2023-04-03T07:55:58;10.73;;;6.43;;
4375;SDS011;2202;50.866;12.750;2023-04-03T07:58:26;8.93;;;7.53;;
4375;SDS011;2202;50.866;12.750;2023-04-03T08:00:53;10.83;;;7.50;;
4375;SDS011;2202;50.866;12.750;2023-04-03T08:03:20;10.83;;;7.00;;
4375;SDS011;2202;50.866;12.750;2023-04-03T08:05:47;6.87;;;6.20;;
4375;SDS011;2202;50.866;12.750;2023-04-03T08:08:18;7.57;;;6.07;;
4375;SDS011;2202;50.866;12.750;2023-04-03T08:10:47;7.27;;;6.57;;
4375;SDS011;2202;50.866;12.750;2023-04-03T08:13:15;11.93;;;10.23;;
4375;SDS011;2202;50.866;12.750;2023-04-03T08:15:41;7.53;;;6.37;;
4375;SDS011;2202;50.866;12.750;2023-04-03T08:18:08;9.00;;;6.50;;
4375;SDS011;2202;50.866;12.750;2023-04-03T08:20:35;9.10;;;6.97;;
4375;SDS011;2202;50.866;12.750;2023-04-03T08:23:03;11.50;;;7.03;;
4375;SDS011;2202;50.866;12.750;2023-04-03T08:25:31;13.57;;;6.57;;
4375;SDS011;2202;50.866;12.750;2023-04-03T08:27:58;11.50;;;6.50;;
4375;SDS011;2202;50.866;12.750;2023-04-03T08:30:27;9.23;;;5.53;;
4375;SDS011;2202;50.866;12.750;2023-04-03T08:32:54;12.70;;;6.03;;
4375;SDS011;2202;50.866;12.750;2023-04-03T08:35:21;6.10;;;5.60;;
4375;SDS011;2202;50.866;12.750;2023-04-03T08:37:48;12.80;;;6.00;;
4375;SDS011;2202;50.866;12.750;2023-04-03T08:40:15;6.13;;;5.53;;
4375;SDS011;2202;50.866;12.750;2023-04-03T08:42:47;10.50;;;5.87;;
4375;SDS011;2202;50.866;12.750;2023-04-03T08:45:25;7.50;;;5.43;;
4375;SDS011;2202;50.866;12.750;2023-04-03T08:48:02;6.20;;;5.70;;
4375;SDS011;2202;50.866;12.750;2023-04-03T08:50:33;5.20;;;4.70;;
4375;SDS011;2202;50.866;12.750;2023-04-03T08:53:05;5.27;;;4.80;;
4375;SDS011;2202;50.866;12.750;2023-04-03T08:55:37;8.03;;;5.00;;
4375;SDS011;2202;50.866;12.750;2023-04-03T08:58:11;5.73;;;5.23;;
4375;SDS011;2202;50.866;12.750;2023-04-03T09:00:43;6.43;;;5.57;;
4375;SDS011;2202;50.866;12.750;2023-04-03T09:03:12;6.70;;;5.33;;
4375;SDS011;2202;50.866;12.750;2023-04-03T09:05:41;8.17;;;5.00;;
4375;SDS011;2202;50.866;12.750;2023-04-03T09:08:14;9.03;;;6.00;;
4375;SDS011;2202;50.866;12.750;2023-04-03T09:10:49;9.57;;;6.00;;
4375;SDS011;2202;50.866;12.750;2023-04-03T09:13:26;6.03;;;5.60;;
4375;SDS011;2202;50.866;12.750;2023-04-03T09:16:02;5.10;;;4.70;;
4375;SDS011;2202;50.866;12.750;2023-04-03T09:18:41;4.50;;;4.10;;
4375;SDS011;2202;50.866;12.750;2023-04-03T09:21:16;5.13;;;4.47;;
4375;SDS011;2202;50.866;12.750;2023-04-03T09:23:51;4.20;;;3.83;;
4375;SDS011;2202;50.866;12.750;2023-04-03T09:26:23;5.80;;;4.20;;
4375;SDS011;2202;50.866;12.750;2023-04-03T09:28:53;5.83;;;3.50;;
4375;SDS011;2202;50.866;12.750;2023-04-03T09:31:23;4.63;;;4.23;;
4375;SDS011;2202;50.866;12.750;2023-04-03T09:33:52;5.00;;;4.20;;
4375;SDS011;2202;50.866;12.750;2023-04-03T09:36:41;3.53;;;3.23;;
4375;SDS011;2202;50.866;12.750;2023-04-03T09:39:11;3.20;;;2.90;;
4375;SDS011;2202;50.866;12.750;2023-04-03T09:41:41;3.00;;;2.33;;
4375;SDS011;2202;50.866;12.750;2023-04-03T09:44:22;4.73;;;3.53;;
4375;SDS011;2202;50.866;12.750;2023-04-03T09:46:49;4.20;;;3.80;;
4375;SDS011;2202;50.866;12.750;2023-04-03T09:49:16;4.30;;;3.50;;
4375;SDS011;2202;50.866;12.750;2023-04-03T09:51:43;4.13;;;3.37;;
4375;SDS011;2202;50.866;12.750;2023-04-03T09:57:04;3.70;;;3.40;;
4375;SDS011;2202;50.866;12.750;2023-04-03T09:59:36;7.80;;;4.03;;
4375;SDS011;2202;50.866;12.750;2023-04-03T10:02:18;7.73;;;3.23;;
4375;SDS011;2202;50.866;12.750;2023-04-03T10:04:49;3.10;;;2.63;;
4375;SDS011;2202;50.866;12.750;2023-04-03T10:07:26;5.30;;;3.73;;
4375;SDS011;2202;50.866;12.750;2023-04-03T10:09:59;3.80;;;3.20;;
4375;SDS011;2202;50.866;12.750;2023-04-03T10:12:28;3.50;;;3.20;;
4375;SDS011;2202;50.866;12.750;2023-04-03T10:14:57;4.83;;;4.43;;
4375;SDS011;2202;50.866;12.750;2023-04-03T10:17:35;3.17;;;2.87;;
4375;SDS011;2202;50.866;12.750;2023-04-03T10:20:11;6.33;;;3.60;;
4375;SDS011;2202;50.866;12.750;2023-04-03T10:22:54;5.93;;;4.13;;
4375;SDS011;2202;50.866;12.750;2023-04-03T10:25:29;4.00;;;3.30;;
4375;SDS011;2202;50.866;12.750;2023-04-03T10:28:05;5.03;;;3.20;;
4375;SDS011;2202;50.866;12.750;2023-04-03T10:30:39;9.33;;;4.53;;
4375;SDS011;2202;50.866;12.750;2023-04-03T10:33:17;4.53;;;4.13;;
4375;SDS011;2202;50.866;12.750;2023-04-03T10:36:16;4.43;;;3.47;;
4375;SDS011;2202;50.866;12.750;2023-04-03T10:38:54;3.47;;;2.83;;
4375;SDS011;2202;50.866;12.750;2023-04-03T10:41:30;4.57;;;2.90;;
4375;SDS011;2202;50.866;12.750;2023-04-03T10:44:05;4.90;;;3.20;;
4375;SDS011;2202;50.866;12.750;2023-04-03T10:46:43;3.83;;;3.40;;
4375;SDS011;2202;50.866;12.750;2023-04-03T10:49:17;3.57;;;3.27;;
4375;SDS011;2202;50.866;12.750;2023-04-03T10:51:54;7.93;;;2.80;;
4375;SDS011;2202;50.866;12.750;2023-04-03T10:54:26;5.63;;;3.10;;
4375;SDS011;2202;50.866;12.750;2023-04-03T10:57:02;2.43;;;2.23;;
4375;SDS011;2202;50.866;12.750;2023-04-03T10:59:32;3.30;;;2.70;;
4375;SDS011;2202;50.866;12.750;2023-04-03T11:02:04;3.00;;;2.23;;
4375;SDS011;2202;50.866;12.750;2023-04-03T11:04:37;6.97;;;3.80;;
4375;SDS011;2202;50.866;12.750;2023-04-03T11:07:08;9.07;;;3.50;;
4375;SDS011;2202;50.866;12.750;2023-04-03T11:09:41;8.73;;;4.47;;
4375;SDS011;2202;50.866;12.750;2023-04-03T11:12:11;2.33;;;2.10;;
4375;SDS011;2202;50.866;12.750;2023-04-03T11:14:42;4.27;;;3.37;;
4375;SDS011;2202;50.866;12.750;2023-04-03T11:17:19;3.37;;;3.00;;
4375;SDS011;2202;50.866;12.750;2023-04-03T11:19:57;3.60;;;2.40;;
4375;SDS011;2202;50.866;12.750;2023-04-03T11:22:32;4.77;;;2.90;;
4375;SDS011;2202;50.866;12.750;2023-04-03T11:25:03;2.60;;;2.20;;
4375;SDS011;2202;50.866;12.750;2023-04-03T11:27:33;8.43;;;2.23;;
4375;SDS011;2202;50.866;12.750;2023-04-03T11:30:07;3.73;;;2.80;;
4375;SDS011;2202;50.866;12.750;2023-04-03T11:32:54;2.80;;;2.60;;
4375;SDS011;2202;50.866;12.750;2023-04-03T11:35:29;3.47;;;2.53;;
4375;SDS011;2202;50.866;12.750;2023-04-03T11:37:58;2.93;;;2.40;;
4375;SDS011;2202;50.866;12.750;2023-04-03T11:40:28;3.13;;;2.13;;
4375;SDS011;2202;50.866;12.750;2023-04-03T11:43:03;7.00;;;5.30;;
4375;SDS011;2202;50.866;12.750;2023-04-03T11:45:36;3.40;;;2.63;;
4375;SDS011;2202;50.866;12.750;2023-04-03T11:48:06;4.20;;;2.93;;
4375;SDS011;2202;50.866;12.750;2023-04-03T11:50:56;4.37;;;2.77;;
4375;SDS011;2202;50.866;12.750;2023-04-03T11:53:25;4.17;;;2.03;;
4375;SDS011;2202;50.866;12.750;2023-04-03T11:55:59;5.77;;;1.90;;
4375;SDS011;2202;50.866;12.750;2023-04-03T12:01:43;3.60;;;2.40;;
4375;SDS011;2202;50.866;12.750;2023-04-03T12:04:13;2.37;;;2.17;;
4375;SDS011;2202;50.866;12.750;2023-04-03T12:12:38;3.20;;;1.77;;
4375;SDS011;2202;50.866;12.750;2023-04-03T12:15:23;1.90;;;1.73;;
4375;SDS011;2202;50.866;12.750;2023-04-03T12:17:52;2.17;;;1.97;;
4375;SDS011;2202;50.866;12.750;2023-04-03T12:23:26;5.67;;;2.40;;
4375;SDS011;2202;50.866;12.750;2023-04-03T12:25:59;6.67;;;2.83;;
4375;SDS011;2202;50.866;12.750;2023-04-03T12:28:29;2.90;;;2.10;;
4375;SDS011;2202;50.866;12.750;2023-04-03T12:31:02;3.70;;;2.10;;
4375;SDS011;2202;50.866;12.750;2023-04-03T12:33:34;2.80;;;1.80;;
4375;SDS011;2202;50.866;12.750;2023-04-03T12:36:14;2.40;;;2.10;;
4375;SDS011;2202;50.866;12.750;2023-04-03T12:38:58;2.20;;;2.00;;
4375;SDS011;2202;50.866;12.750;2023-04-03T12:41:36;2.73;;;2.23;;
4375;SDS011;2202;50.866;12.750;2023-04-03T12:44:13;2.03;;;1.83;;
4375;SDS011;2202;50.866;12.750;2023-04-03T12:47:21;2.73;;;2.33;;
4375;SDS011;2202;50.866;12.750;2023-04-03T12:49:52;4.80;;;2.50;;
4375;SDS011;2202;50.866;12.750;2023-04-03T12:52:25;4.73;;;2.30;;
4375;SDS011;2202;50.866;12.750;2023-04-03T12:55:01;6.13;;;2.40;;
4375;SDS011;2202;50.866;12.750;2023-04-03T12:57:30;3.10;;;2.47;;
4375;SDS011;2202;50.866;12.750;2023-04-03T12:59:57;2.20;;;2.00;;
4375;SDS011;2202;50.866;12.750;2023-04-03T13:02:26;5.70;;;2.50;;
4375;SDS011;2202;50.866;12.750;2023-04-03T13:04:55;2.97;;;2.43;;
4375;SDS011;2202;50.866;12.750;2023-04-03T13:07:26;4.73;;;2.47;;
4375;SDS011;2202;50.866;12.750;2023-04-03T13:10:04;4.77;;;2.37;;
4375;SDS011;2202;50.866;12.750;2023-04-03T13:12:50;2.63;;;2.40;;
4375;SDS011;2202;50.866;12.750;2023-04-03T13:15:19;2.13;;;1.93;;
4375;SDS011;2202;50.866;12.750;2023-04-03T13:17:47;2.87;;;2.63;;
4375;SDS011;2202;50.866;12.750;2023-04-03T13:20:18;2.33;;;2.13;;
4375;SDS011;2202;50.866;12.750;2023-04-03T13:22:51;7.10;;;2.27;;
4375;SDS011;2202;50.866;12.750;2023-04-03T13:25:24;3.17;;;2.83;;
4375;SDS011;2202;50.866;12.750;2023-04-03T13:27:53;4.03;;;2.97;;
4375;SDS011;2202;50.866;12.750;2023-04-03T13:30:23;3.10;;;2.73;;
4375;SDS011;2202;50.866;12.750;2023-04-03T13:32:53;2.50;;;2.30;;
4375;SDS011;2202;50.866;12.750;2023-04-03T13:35:25;5.07;;;3.57;;
4375;SDS011;2202;50.866;12.750;2023-04-03T13:37:57;3.63;;;2.83;;
4375;SDS011;2202;50.866;12.750;2023-04-03T13:40:27;3.10;;;2.00;;
4375;SDS011;2202;50.866;12.750;2023-04-03T13:43:01;3.87;;;2.37;;
4375;SDS011;2202;50.866;12.750;2023-04-03T13:45:32;8.23;;;4.10;;
4375;SDS011;2202;50.866;12.750;2023-04-03T13:48:08;5.93;;;2.20;;
4375;SDS011;2202;50.866;12.750;2023-04-03T13:50:52;3.83;;;2.53;;
4375;SDS011;2202;50.866;12.750;2023-04-03T13:53:23;2.93;;;2.37;;
4375;SDS011;2202;50.866;12.750;2023-04-03T13:55:52;4.57;;;2.30;;
4375;SDS011;2202;50.866;12.750;2023-04-03T13:58:31;2.63;;;2.43;;
4375;SDS011;2202;50.866;12.750;2023-04-03T14:01:00;4.57;;;2.20;;
4375;SDS011;2202;50.866;12.750;2023-04-03T14:03:34;3.67;;;2.27;;
4375;SDS011;2202;50.866;12.750;2023-04-03T14:06:08;3.07;;;2.47;;
4375;SDS011;2202;50.866;12.750;2023-04-03T14:08:38;3.03;;;2.73;;
4375;SDS011;2202;50.866;12.750;2023-04-03T14:11:06;5.70;;;2.57;;
4375;SDS011;2202;50.866;12.750;2023-04-03T14:13:37;5.80;;;2.60;;
4375;SDS011;2202;50.866;12.750;2023-04-03T14:16:04;4.93;;;2.67;;
4375;SDS011;2202;50.866;12.750;2023-04-03T14:18:31;5.00;;;2.30;;
4375;SDS011;2202;50.866;12.750;2023-04-03T14:20:58;5.60;;;2.20;;
4375;SDS011;2202;50.866;12.750;2023-04-03T14:23:25;2.63;;;2.33;;
4375;SDS011;2202;50.866;12.750;2023-04-03T14:25:53;2.23;;;2.03;;
4375;SDS011;2202;50.866;12.750;2023-04-03T14:28:22;3.60;;;2.90;;
4375;SDS011;2202;50.866;12.750;2023-04-03T14:30:49;2.77;;;1.90;;
4375;SDS011;2202;50.866;12.750;2023-04-03T14:33:18;2.63;;;2.43;;
4375;SDS011;2202;50.866;12.750;2023-04-03T14:35:46;3.87;;;2.53;;
4375;SDS011;2202;50.866;12.750;2023-04-03T14:38:21;2.53;;;2.33;;
4375;SDS011;2202;50.866;12.750;2023-04-03T14:40:50;3.80;;;2.57;;
4375;SDS011;2202;50.866;12.750;2023-04-03T14:43:20;3.03;;;2.30;;
4375;SDS011;2202;50.866;12.750;2023-04-03T14:45:47;4.37;;;2.63;;
4375;SDS011;2202;50.866;12.750;2023-04-03T14:48:16;3.57;;;2.80;;
4375;SDS011;2202;50.866;12.750;2023-04-03T14:50:45;5.83;;;2.83;;
4375;SDS011;2202;50.866;12.750;2023-04-03T14:53:13;5.03;;;2.90;;
4375;SDS011;2202;50.866;12.750;2023-04-03T14:55:41;3.03;;;2.60;;
4375;SDS011;2202;50.866;12.750;2023-04-03T14:58:12;4.40;;;3.50;;
4375;SDS011;2202;50.866;12.750;2023-04-03T15:00:41;4.00;;;3.60;;
4375;SDS011;2202;50.866;12.750;2023-04-03T15:03:12;3.60;;;2.37;;
4375;SDS011;2202;50.866;12.750;2023-04-03T15:05:41;6.67;;;3.43;;
4375;SDS011;2202;50.866;12.750;2023-04-03T15:08:13;5.87;;;3.87;;
4375;SDS011;2202;50.866;12.750;2023-04-03T15:10:45;2.83;;;2.63;;
4375;SDS011;2202;50.866;12.750;2023-04-03T15:13:12;2.77;;;2.57;;
4375;SDS011;2202;50.866;12.750;2023-04-03T15:15:41;3.23;;;2.93;;
4375;SDS011;2202;50.866;12.750;2023-04-03T15:18:10;4.47;;;2.30;;
4375;SDS011;2202;50.866;12.750;2023-04-03T15:20:42;5.20;;;2.90;;
4375;SDS011;2202;50.866;12.750;2023-04-03T15:23:10;3.60;;;2.47;;
4375;SDS011;2202;50.866;12.750;2023-04-03T15:25:38;2.90;;;2.60;;
4375;SDS011;2202;50.866;12.750;2023-04-03T15:28:05;4.80;;;2.23;;
4375;SDS011;2202;50.866;12.750;2023-04-03T15:30:34;3.60;;;2.53;;